Port Isaac, United Kingdom
Current Conditions -  °F | °C
As of 8:20 AM on Friday 19 Dec 2014 (Local Time) from EGHQ Reporting Station
Broken Clouds Broken Clouds  
Wind Chill: 39°   Ceiling: 2700
Heat Index: 46°   Visibility: 6mi
Dew Point: 41°   Wind: 22mph
Humidity: 81%   Direction: 300°WNW
Pressure: 30.03"   Gusts: NA
Location:  50.59°N, 4.83°W
Report Text: EGHQ 190820Z 30019KT 9999 BKN027 08/05 Q1017
Loading
Personal Weather Stations






























Interactive Weather Map New forecast layout! Learn more

10-Day Weather Forecast

Advertisements
Track Severe Weather on mobile